createdAt,value
2023-02-07T00:01:28.394Z,-2.57
2023-02-07T00:04:41.748Z,-2.65
2023-02-07T00:12:05.404Z,-2.55
2023-02-07T00:27:11.374Z,-2.58
2023-02-07T00:30:16.251Z,-2.46
2023-02-07T00:33:27.175Z,-2.40
2023-02-07T00:36:47.976Z,-2.35
2023-02-07T00:39:38.520Z,-2.36
2023-02-07T00:42:18.222Z,-2.39
2023-02-07T00:44:45.755Z,-2.44
2023-02-07T00:47:13.217Z,-2.45
2023-02-07T00:49:40.635Z,-2.41
2023-02-07T00:52:08.170Z,-2.38
2023-02-07T00:54:35.625Z,-2.49
2023-02-07T00:57:03.309Z,-2.62
2023-02-07T00:59:30.837Z,-2.57
2023-02-07T01:01:58.848Z,-2.52
2023-02-07T01:04:27.291Z,-2.47
2023-02-07T01:06:54.875Z,-2.46
2023-02-07T01:09:22.327Z,-2.46
2023-02-07T01:11:50.421Z,-2.49
2023-02-07T01:14:21.086Z,-2.49
2023-02-07T01:16:50.099Z,-2.55
2023-02-07T01:19:18.828Z,-2.58
2023-02-07T01:21:46.449Z,-2.47
2023-02-07T01:24:14.059Z,-2.47
2023-02-07T01:26:41.765Z,-2.50
2023-02-07T01:29:14.014Z,-2.54
2023-02-07T01:31:42.887Z,-2.56
2023-02-07T01:34:12.299Z,-2.54
2023-02-07T01:36:40.373Z,-2.49
2023-02-07T01:39:08.147Z,-2.56
2023-02-07T01:41:35.856Z,-2.69
2023-02-07T01:44:28.928Z,-2.82
2023-02-07T01:46:57.265Z,-2.86
2023-02-07T01:49:29.367Z,-2.92
2023-02-07T01:52:02.322Z,-2.88
2023-02-07T01:54:33.619Z,-2.89
2023-02-07T01:57:06.426Z,-2.89
2023-02-07T01:59:38.872Z,-2.87
2023-02-07T02:02:06.673Z,-2.81
2023-02-07T02:04:34.243Z,-2.75
2023-02-07T02:07:02.005Z,-2.71
2023-02-07T02:09:30.014Z,-2.59
2023-02-07T02:12:15.698Z,-2.47
2023-02-07T02:15:02.424Z,-2.48
2023-02-07T02:17:52.166Z,-2.53
2023-02-07T02:20:52.338Z,-2.47
2023-02-07T02:23:33.584Z,-2.52
2023-02-07T02:26:28.788Z,-2.55
2023-02-07T02:29:09.635Z,-2.47
2023-02-07T02:31:45.925Z,-2.48
2023-02-07T02:34:20.798Z,-2.44
2023-02-07T02:37:06.445Z,-2.44
2023-02-07T02:40:17.022Z,-2.45
2023-02-07T02:42:52.687Z,-2.58
2023-02-07T02:45:32.054Z,-2.54
2023-02-07T02:48:02.278Z,-2.53
2023-02-07T02:50:31.591Z,-2.46
2023-02-07T02:52:59.052Z,-2.47
2023-02-07T02:56:10.010Z,-2.35
2023-02-07T02:59:14.896Z,-2.31
2023-02-07T03:02:07.477Z,-2.35
2023-02-07T03:05:13.119Z,-2.22
2023-02-07T03:08:10.105Z,-2.25
2023-02-07T03:10:57.589Z,-2.30
2023-02-07T03:13:40.084Z,-2.32
2023-02-07T03:16:19.688Z,-2.45
2023-02-07T03:19:15.623Z,-2.46
2023-02-07T03:21:47.211Z,-2.60
2023-02-07T03:24:18.781Z,-2.65
2023-02-07T03:26:51.017Z,-2.60
2023-02-07T03:29:21.268Z,-2.56
2023-02-07T03:31:53.375Z,-2.49
2023-02-07T03:34:32.607Z,-2.49
2023-02-07T03:37:17.827Z,-2.42
2023-02-07T03:39:45.778Z,-2.48
2023-02-07T03:42:41.450Z,-2.42
2023-02-07T03:45:14.499Z,-2.46
2023-02-07T03:47:42.048Z,-2.52
2023-02-07T03:50:10.736Z,-2.60
2023-02-07T03:52:38.298Z,-2.57
2023-02-07T03:55:07.020Z,-2.53
2023-02-07T03:57:34.756Z,-2.48
2023-02-07T04:00:02.439Z,-2.53
2023-02-07T04:02:40.524Z,-2.48
2023-02-07T04:05:08.352Z,-2.46
2023-02-07T04:07:35.860Z,-2.45
2023-02-07T04:10:04.876Z,-2.44
2023-02-07T04:12:33.069Z,-2.54
2023-02-07T04:15:01.696Z,-2.48
2023-02-07T04:17:31.401Z,-2.58
2023-02-07T04:20:01.703Z,-2.60
2023-02-07T04:22:31.464Z,-2.72
2023-02-07T04:24:59.059Z,-2.63
2023-02-07T04:27:26.636Z,-2.67
2023-02-07T04:29:54.185Z,-2.71
2023-02-07T04:32:22.012Z,-2.70
2023-02-07T04:34:49.493Z,-2.69
2023-02-07T04:37:17.007Z,-2.64
2023-02-07T04:39:46.172Z,-2.53
2023-02-07T04:42:13.732Z,-2.57
2023-02-07T04:44:42.520Z,-2.48
2023-02-07T04:47:10.070Z,-2.48
2023-02-07T04:49:37.548Z,-2.55
2023-02-07T04:52:05.073Z,-2.53
2023-02-07T04:54:32.589Z,-2.45
2023-02-07T04:57:00.147Z,-2.38
2023-02-07T04:59:29.084Z,-2.34
2023-02-07T05:01:56.718Z,-2.44
2023-02-07T05:04:24.345Z,-2.34
2023-02-07T05:06:51.936Z,-2.31
2023-02-07T05:09:19.384Z,-2.40
2023-02-07T05:11:46.807Z,-2.48
2023-02-07T05:14:14.456Z,-2.57
2023-02-07T05:16:42.051Z,-2.75
2023-02-07T05:19:09.643Z,-2.63
2023-02-07T05:21:37.061Z,-2.60
2023-02-07T05:24:04.800Z,-2.49
2023-02-07T05:26:32.295Z,-2.47
2023-02-07T05:28:59.786Z,-2.52
2023-02-07T05:31:47.341Z,-2.54
2023-02-07T05:34:15.022Z,-2.56
2023-02-07T05:36:42.739Z,-2.67
2023-02-07T05:39:10.371Z,-2.66
2023-02-07T05:41:37.860Z,-2.62
2023-02-07T05:44:05.406Z,-2.68
2023-02-07T05:46:33.071Z,-2.75
2023-02-07T05:49:00.696Z,-2.72
2023-02-07T05:51:28.229Z,-2.70
2023-02-07T05:53:55.702Z,-2.60
2023-02-07T05:56:23.177Z,-2.50
2023-02-07T05:58:50.705Z,-2.46
2023-02-07T06:01:18.190Z,-2.38
2023-02-07T06:03:45.808Z,-2.47
2023-02-07T06:06:13.262Z,-2.44
2023-02-07T06:08:40.823Z,-2.44
2023-02-07T06:11:08.272Z,-2.62
2023-02-07T06:13:35.898Z,-2.64
2023-02-07T06:16:03.469Z,-2.66
2023-02-07T06:18:31.105Z,-2.64
2023-02-07T06:20:58.578Z,-2.58
2023-02-07T06:23:26.223Z,-2.52
2023-02-07T06:25:54.340Z,-2.54
2023-02-07T06:28:21.891Z,-2.42
2023-02-07T06:30:52.037Z,-2.36
2023-02-07T06:36:49.571Z,-2.33
2023-02-07T06:39:34.974Z,-2.30
2023-02-07T06:46:06.166Z,-2.21
2023-02-07T06:48:33.944Z,-2.25
2023-02-07T06:51:01.693Z,-2.24
2023-02-07T06:53:29.987Z,-2.27
2023-02-07T06:55:57.629Z,-2.21
2023-02-07T06:58:25.302Z,-2.11
2023-02-07T07:00:52.786Z,-2.21
2023-02-07T07:03:20.549Z,-2.21
2023-02-07T07:05:48.048Z,-2.20
2023-02-07T07:08:18.325Z,-2.16
2023-02-07T07:10:45.980Z,-2.14
2023-02-07T07:13:13.465Z,-2.11
2023-02-07T07:15:41.297Z,-2.11
2023-02-07T07:18:08.906Z,-2.02
2023-02-07T07:20:36.459Z,-2.01
2023-02-07T07:23:04.243Z,-2.02
2023-02-07T07:25:31.806Z,-1.89
2023-02-07T07:27:59.469Z,-1.92
2023-02-07T07:30:26.967Z,-1.99
2023-02-07T07:32:54.618Z,-1.88
2023-02-07T07:35:22.062Z,-1.81
2023-02-07T07:37:49.501Z,-1.84
2023-02-07T07:40:17.112Z,-1.75
2023-02-07T07:42:44.687Z,-1.76
2023-02-07T07:45:30.559Z,-1.69
2023-02-07T07:47:58.112Z,-1.72
2023-02-07T07:50:25.558Z,-1.74
2023-02-07T07:52:53.192Z,-1.71
2023-02-07T07:55:20.704Z,-1.70
2023-02-07T07:57:50.575Z,-1.65
2023-02-07T08:00:18.355Z,-1.65
2023-02-07T08:02:45.881Z,-1.53
2023-02-07T08:05:13.998Z,-1.72
2023-02-07T08:07:41.663Z,-1.65
2023-02-07T08:10:12.300Z,-1.60
2023-02-07T08:12:41.123Z,-1.53
2023-02-07T08:15:09.919Z,-1.54
2023-02-07T08:17:37.465Z,-1.44
2023-02-07T08:20:05.582Z,-1.43
2023-02-07T08:22:33.032Z,-1.38
2023-02-07T08:25:00.649Z,-1.51
2023-02-07T08:27:28.285Z,-1.56
2023-02-07T08:29:55.872Z,-1.56
2023-02-07T08:32:23.434Z,-1.58
2023-02-07T08:34:50.967Z,-1.50
2023-02-07T08:37:18.681Z,-1.45
2023-02-07T08:39:46.214Z,-1.42
2023-02-07T08:42:13.760Z,-1.35
2023-02-07T08:44:41.293Z,-1.34
2023-02-07T08:47:08.862Z,-1.54
2023-02-07T08:49:36.352Z,-1.52
2023-02-07T08:52:04.235Z,-1.47
2023-02-07T08:54:31.735Z,-1.38
2023-02-07T08:56:59.409Z,-1.35
2023-02-07T08:59:27.244Z,-1.31
2023-02-07T09:01:54.886Z,-1.27
2023-02-07T09:04:22.607Z,-1.27
2023-02-07T09:06:50.359Z,-1.19
2023-02-07T09:09:18.768Z,-1.15
2023-02-07T09:11:46.378Z,-1.09
2023-02-07T09:14:14.061Z,-1.01
2023-02-07T09:16:41.566Z,-0.92
2023-02-07T09:19:09.109Z,-0.87
2023-02-07T09:21:37.638Z,-0.81
2023-02-07T09:24:05.422Z,-0.76
2023-02-07T09:26:34.510Z,-0.67
2023-02-07T09:29:03.046Z,-0.61
2023-02-07T09:31:30.729Z,-0.49
2023-02-07T09:34:00.203Z,-0.40
2023-02-07T09:36:29.564Z,-0.26
2023-02-07T09:38:58.318Z,-0.11
2023-02-07T09:41:31.585Z,0.05
2023-02-07T09:44:16.550Z,0.15
2023-02-07T09:47:12.053Z,0.39
2023-02-07T09:49:47.479Z,0.26
2023-02-07T09:52:21.491Z,0.15
2023-02-07T09:54:54.486Z,0.04
2023-02-07T09:57:31.756Z,-0.06
2023-02-07T10:00:31.678Z,0.04
2023-02-07T10:07:19.419Z,-0.12
2023-02-07T10:11:16.829Z,-0.20
2023-02-07T10:15:26.815Z,-0.20
2023-02-07T10:18:31.750Z,-0.31
2023-02-07T10:21:11.855Z,-0.32
2023-02-07T10:24:04.776Z,-0.19
2023-02-07T10:27:02.064Z,-0.19
2023-02-07T10:30:09.568Z,-0.10
2023-02-07T10:33:02.677Z,-0.15
2023-02-07T10:36:01.106Z,-0.13
2023-02-07T10:39:12.854Z,-0.03
2023-02-07T10:41:44.117Z,-0.15
2023-02-07T10:44:22.806Z,-0.04
2023-02-07T10:47:00.526Z,-0.01
2023-02-07T10:49:31.976Z,0.02
2023-02-07T10:52:06.293Z,-0.01
2023-02-07T10:54:57.376Z,0.01
2023-02-07T10:57:26.762Z,-0.15
2023-02-07T11:00:10.953Z,-0.07
2023-02-07T11:02:49.503Z,-0.20
2023-02-07T11:05:17.138Z,-0.18
2023-02-07T11:08:03.192Z,-0.11
2023-02-07T11:10:38.120Z,-0.25
2023-02-07T11:13:14.183Z,-0.28
2023-02-07T11:16:07.927Z,-0.22
2023-02-07T11:19:03.205Z,-0.22
2023-02-07T11:21:38.305Z,-0.30
2023-02-07T11:24:13.332Z,-0.37
2023-02-07T11:27:12.961Z,-0.23
2023-02-07T11:29:49.655Z,-0.38
2023-02-07T11:32:17.944Z,-0.46
2023-02-07T11:34:58.726Z,-0.49
2023-02-07T11:37:32.467Z,-0.59
2023-02-07T11:40:27.225Z,-0.50
2023-02-07T11:43:18.424Z,-0.57
2023-02-07T11:45:53.620Z,-0.52
2023-02-07T11:48:35.653Z,-0.53
2023-02-07T11:51:06.619Z,-0.59
2023-02-07T11:53:47.901Z,-0.53
2023-02-07T11:56:48.762Z,-0.43
2023-02-07T11:59:24.905Z,-0.51
2023-02-07T12:01:55.605Z,-0.52
2023-02-07T12:04:38.874Z,-0.50
2023-02-07T12:07:26.538Z,-0.56
2023-02-07T12:09:57.961Z,-0.51
2023-02-07T12:13:07.684Z,-0.37
2023-02-07T12:16:12.737Z,-0.57
2023-02-07T12:19:00.837Z,-0.53
2023-02-07T12:21:28.182Z,-0.22
2023-02-07T12:24:03.980Z,-0.41
2023-02-07T12:27:13.653Z,-0.36
2023-02-07T12:29:49.597Z,-0.44
2023-02-07T12:32:54.750Z,-0.40
2023-02-07T12:35:56.784Z,-0.38
2023-02-07T12:38:31.137Z,-0.49
2023-02-07T12:41:38.210Z,-0.48
2023-02-07T12:44:28.751Z,-0.74
2023-02-07T12:47:26.029Z,-0.69
2023-02-07T12:50:31.386Z,-0.73
2023-02-07T12:53:43.564Z,-0.70
2023-02-07T12:56:22.159Z,-0.93
2023-02-07T12:59:03.293Z,-0.88
2023-02-07T13:01:49.447Z,-0.95
2023-02-07T13:04:49.817Z,-0.88
2023-02-07T13:07:44.438Z,-0.82
2023-02-07T13:10:31.840Z,-0.83
2023-02-07T13:13:14.468Z,-0.91
2023-02-07T13:15:53.872Z,-0.95
2023-02-07T13:18:27.732Z,-0.96
2023-02-07T13:21:18.893Z,-0.98
2023-02-07T13:23:48.816Z,-1.03
2023-02-07T13:26:27.715Z,-1.12
2023-02-07T13:28:57.021Z,-1.13
2023-02-07T13:31:51.192Z,-1.03
2023-02-07T13:34:24.832Z,-1.17
2023-02-07T13:36:53.398Z,-1.26
2023-02-07T13:39:39.335Z,-1.23
2023-02-07T13:42:27.368Z,-1.14
2023-02-07T13:45:14.704Z,-1.16
2023-02-07T13:47:51.264Z,-1.19
2023-02-07T13:50:30.967Z,-1.19
2023-02-07T13:53:29.023Z,-1.14
2023-02-07T13:56:08.428Z,-1.23
2023-02-07T13:58:54.253Z,-1.33
2023-02-07T14:01:27.917Z,-1.33
2023-02-07T14:04:03.529Z,-1.35
2023-02-07T14:06:35.198Z,-1.44
2023-02-07T14:09:18.356Z,-1.47
2023-02-07T14:12:22.737Z,-1.38
2023-02-07T14:15:01.878Z,-1.53
2023-02-07T14:17:30.767Z,-1.53
2023-02-07T14:20:00.265Z,-1.51
2023-02-07T14:22:51.821Z,-1.55
2023-02-07T14:25:31.676Z,-1.50
2023-02-07T14:28:20.157Z,-1.44
2023-02-07T14:30:54.018Z,-1.48
2023-02-07T14:33:39.252Z,-1.65
2023-02-07T14:36:14.064Z,-1.57
2023-02-07T14:38:46.298Z,-1.64
2023-02-07T14:41:16.583Z,-1.74
2023-02-07T14:44:07.923Z,-1.71
2023-02-07T14:46:47.285Z,-1.70
2023-02-07T14:49:17.816Z,-1.79
2023-02-07T14:51:47.927Z,-1.79
2023-02-07T14:54:18.536Z,-1.78
2023-02-07T14:56:57.156Z,-1.84
2023-02-07T14:59:40.688Z,-1.88
2023-02-07T15:02:34.588Z,-1.88
2023-02-07T15:05:14.133Z,-2.00
2023-02-07T15:07:44.019Z,-2.12
2023-02-07T15:10:24.301Z,-2.07
2023-02-07T15:12:56.302Z,-2.19
2023-02-07T15:15:27.332Z,-2.13
2023-02-07T15:18:01.047Z,-2.12
2023-02-07T15:20:32.298Z,-2.15
2023-02-07T15:23:02.580Z,-2.15
2023-02-07T15:25:33.121Z,-2.17
2023-02-07T15:28:09.268Z,-2.14
2023-02-07T15:30:38.809Z,-2.08
2023-02-07T15:33:16.962Z,-2.03
2023-02-07T15:35:44.449Z,-2.08
2023-02-07T15:38:27.639Z,-2.02
2023-02-07T15:40:55.981Z,-2.03
2023-02-07T15:43:28.116Z,-1.93
2023-02-07T15:46:04.130Z,-1.87
2023-02-07T15:48:32.710Z,-1.91
2023-02-07T15:51:03.958Z,-1.86
2023-02-07T15:53:31.975Z,-1.93
2023-02-07T15:55:59.640Z,-2.02
2023-02-07T15:58:35.167Z,-2.03
2023-02-07T16:01:06.226Z,-2.05
2023-02-07T16:03:41.649Z,-2.05
2023-02-07T16:06:21.060Z,-1.98
2023-02-07T16:08:51.024Z,-2.05
2023-02-07T16:11:27.701Z,-1.97
2023-02-07T16:14:03.203Z,-2.02
2023-02-07T16:16:37.486Z,-2.02
2023-02-07T16:19:26.565Z,-1.90
2023-02-07T16:22:03.838Z,-1.97
2023-02-07T16:24:35.487Z,-2.10
2023-02-07T16:27:04.726Z,-2.10
2023-02-07T16:29:33.261Z,-2.13
2023-02-07T16:32:00.985Z,-2.21
2023-02-07T16:34:28.464Z,-2.31
2023-02-07T16:36:56.941Z,-2.30
2023-02-07T16:39:24.460Z,-2.26
2023-02-07T16:41:56.409Z,-2.25
2023-02-07T16:44:26.075Z,-2.19
2023-02-07T16:46:53.817Z,-2.19
2023-02-07T16:49:23.226Z,-2.15
2023-02-07T16:51:51.529Z,-2.17
2023-02-07T16:54:19.745Z,-2.23
2023-02-07T16:56:50.565Z,-2.25
2023-02-07T16:59:20.735Z,-2.30
2023-02-07T17:01:51.947Z,-2.37
2023-02-07T17:04:20.207Z,-2.38
2023-02-07T17:06:48.485Z,-2.46
2023-02-07T17:09:18.419Z,-2.61
2023-02-07T17:11:48.344Z,-2.69
2023-02-07T17:14:16.097Z,-2.74
2023-02-07T17:16:43.796Z,-2.89
2023-02-07T17:19:18.435Z,-2.83
2023-02-07T17:21:47.266Z,-2.83
2023-02-07T17:24:15.427Z,-2.90
2023-02-07T17:26:46.485Z,-2.97
2023-02-07T17:29:15.762Z,-2.95
2023-02-07T17:31:47.038Z,-2.99
2023-02-07T17:34:14.711Z,-3.07
2023-02-07T17:36:49.939Z,-3.01
2023-02-07T17:39:19.661Z,-3.01
2023-02-07T17:41:48.418Z,-2.92
2023-02-07T17:44:21.186Z,-2.84
2023-02-07T17:46:49.232Z,-2.75
2023-02-07T17:49:17.890Z,-2.81
2023-02-07T17:51:45.621Z,-2.65
2023-02-07T17:54:13.127Z,-2.75
2023-02-07T17:56:40.568Z,-2.61
2023-02-07T17:59:15.891Z,-2.59
2023-02-07T18:01:43.407Z,-2.64
2023-02-07T18:04:10.823Z,-2.60
2023-02-07T18:06:38.428Z,-2.60
2023-02-07T18:09:05.910Z,-2.57
2023-02-07T18:11:34.752Z,-2.56
2023-02-07T18:14:03.048Z,-2.63
2023-02-07T18:16:30.513Z,-2.56
2023-02-07T18:18:58.192Z,-2.55
2023-02-07T18:21:26.838Z,-2.53
2023-02-07T18:23:54.414Z,-2.46
2023-02-07T18:26:22.611Z,-2.54
2023-02-07T18:28:50.491Z,-2.47
2023-02-07T18:31:21.391Z,-2.53
2023-02-07T18:33:50.338Z,-2.50
2023-02-07T18:36:19.048Z,-2.57
2023-02-07T18:38:46.737Z,-2.61
2023-02-07T18:41:17.488Z,-2.63
2023-02-07T18:43:45.033Z,-2.70
2023-02-07T18:46:18.684Z,-2.77
2023-02-07T18:48:46.920Z,-2.88
2023-02-07T18:51:16.005Z,-2.90
2023-02-07T18:53:46.275Z,-2.87
2023-02-07T18:56:17.025Z,-2.95
2023-02-07T18:58:50.958Z,-2.89
2023-02-07T19:01:20.500Z,-2.86
2023-02-07T19:03:54.523Z,-2.77
2023-02-07T19:06:24.269Z,-2.77
2023-02-07T19:08:52.570Z,-2.82
2023-02-07T19:11:20.470Z,-2.69
2023-02-07T19:13:48.050Z,-2.71
2023-02-07T19:16:19.249Z,-2.69
2023-02-07T19:18:48.325Z,-2.67
2023-02-07T19:21:23.824Z,-2.64
2023-02-07T19:23:51.424Z,-2.65
2023-02-07T19:26:20.044Z,-2.65
2023-02-07T19:28:47.606Z,-2.64
2023-02-07T19:31:18.161Z,-2.69
2023-02-07T19:33:48.822Z,-2.67
2023-02-07T19:36:17.884Z,-2.70
2023-02-07T19:38:48.660Z,-2.68
2023-02-07T19:41:19.303Z,-2.65
2023-02-07T19:43:47.790Z,-2.73
2023-02-07T19:46:16.033Z,-2.74
2023-02-07T19:48:44.722Z,-2.75
2023-02-07T19:51:22.812Z,-2.67
2023-02-07T19:53:51.762Z,-2.69
2023-02-07T19:56:20.996Z,-2.68
2023-02-07T19:58:51.550Z,-2.75
2023-02-07T20:01:20.174Z,-2.75
2023-02-07T20:03:53.093Z,-2.76
2023-02-07T20:06:24.740Z,-2.71
2023-02-07T20:08:52.374Z,-2.75
2023-02-07T20:11:20.877Z,-2.78
2023-02-07T20:13:52.376Z,-2.81
2023-02-07T20:16:25.016Z,-2.87
2023-02-07T20:18:53.735Z,-2.93
2023-02-07T20:21:24.666Z,-2.87
2023-02-07T20:23:55.046Z,-2.90
2023-02-07T20:26:30.501Z,-2.98
2023-02-07T20:29:02.070Z,-3.02
2023-02-07T20:31:32.089Z,-3.11
2023-02-07T20:34:02.174Z,-3.09
2023-02-07T20:36:31.616Z,-3.15
2023-02-07T20:39:00.418Z,-3.12
2023-02-07T20:41:29.656Z,-3.12
2023-02-07T20:44:06.926Z,-3.08
2023-02-07T20:46:36.223Z,-3.10
2023-02-07T20:49:13.220Z,-3.02
2023-02-07T20:51:42.480Z,-2.95
2023-02-07T20:54:11.697Z,-3.00
2023-02-07T20:56:40.027Z,-3.08
2023-02-07T20:59:09.972Z,-3.17
2023-02-07T21:01:37.594Z,-3.20
2023-02-07T21:04:06.592Z,-3.16
2023-02-07T21:06:35.606Z,-3.21
2023-02-07T21:09:06.355Z,-3.28
2023-02-07T21:11:39.069Z,-3.30
2023-02-07T21:14:13.809Z,-3.31
2023-02-07T21:16:41.733Z,-3.25
2023-02-07T21:19:09.750Z,-3.28
2023-02-07T21:21:38.330Z,-3.33
2023-02-07T21:24:06.151Z,-3.32
2023-02-07T21:26:33.908Z,-3.33
2023-02-07T21:29:03.768Z,-3.35
2023-02-07T21:31:34.805Z,-3.35
2023-02-07T21:34:04.583Z,-3.39
2023-02-07T21:36:35.033Z,-3.41
2023-02-07T21:39:08.383Z,-3.41
2023-02-07T21:41:37.431Z,-3.37
2023-02-07T21:44:05.280Z,-3.35
2023-02-07T21:46:35.779Z,-3.26
2023-02-07T21:49:07.440Z,-3.37
2023-02-07T21:51:46.390Z,-3.42
2023-02-07T21:54:16.000Z,-3.29
2023-02-07T21:56:44.901Z,-3.27
2023-02-07T21:59:15.950Z,-3.29
2023-02-07T22:01:45.049Z,-3.34
2023-02-07T22:04:15.984Z,-3.37
2023-02-07T22:06:45.125Z,-3.30
2023-02-07T22:09:14.223Z,-3.27
2023-02-07T22:11:42.478Z,-3.30
2023-02-07T22:14:12.074Z,-3.27
2023-02-07T22:16:40.213Z,-3.29
2023-02-07T22:19:11.174Z,-3.28
2023-02-07T22:21:40.347Z,-3.33
2023-02-07T22:24:08.103Z,-3.25
2023-02-07T22:26:35.813Z,-3.23
2023-02-07T22:29:05.318Z,-3.17
2023-02-07T22:31:36.040Z,-3.16
2023-02-07T22:34:14.080Z,-3.17
2023-02-07T22:36:43.365Z,-3.19
2023-02-07T22:39:13.588Z,-3.21
2023-02-07T22:41:41.193Z,-3.24
2023-02-07T22:44:08.808Z,-3.26
2023-02-07T22:46:36.688Z,-3.21
2023-02-07T22:49:04.160Z,-3.20
2023-02-07T22:51:36.773Z,-3.11
2023-02-07T22:54:07.237Z,-3.14
2023-02-07T22:56:37.411Z,-3.15
2023-02-07T22:59:05.919Z,-3.25
2023-02-07T23:01:36.674Z,-3.24
2023-02-07T23:04:05.810Z,-3.23
2023-02-07T23:06:34.136Z,-3.26
2023-02-07T23:09:02.029Z,-3.27
2023-02-07T23:11:29.684Z,-3.23
2023-02-07T23:13:57.220Z,-3.23
2023-02-07T23:16:26.660Z,-3.27
2023-02-07T23:18:58.448Z,-3.36
2023-02-07T23:21:26.533Z,-3.37
2023-02-07T23:23:55.670Z,-3.36
2023-02-07T23:26:24.517Z,-3.45
2023-02-07T23:28:52.871Z,-3.52
2023-02-07T23:31:22.889Z,-3.50
2023-02-07T23:33:51.654Z,-3.47
2023-02-07T23:36:19.457Z,-3.45
2023-02-07T23:38:48.633Z,-3.40
2023-02-07T23:41:16.909Z,-3.32
2023-02-07T23:43:45.213Z,-3.28
2023-02-07T23:46:14.936Z,-3.26
2023-02-07T23:48:42.638Z,-3.27
2023-02-07T23:51:11.365Z,-3.32
2023-02-07T23:53:39.331Z,-3.34
2023-02-07T23:56:07.195Z,-3.27
2023-02-07T23:58:34.815Z,-3.34
